sensor_id;sensor_type;location;lat;lon;timestamp;P1;durP1;ratioP1;P2;durP2;ratioP2
13347;SDS011;6743;49.934;9.138;2022-09-09T00:00:44;0.32;;;0.32;;
13347;SDS011;6743;49.934;9.138;2022-09-09T00:03:16;0.65;;;0.65;;
13347;SDS011;6743;49.934;9.138;2022-09-09T00:05:49;0.45;;;0.45;;
13347;SDS011;6743;49.934;9.138;2022-09-09T00:08:25;0.32;;;0.32;;
13347;SDS011;6743;49.934;9.138;2022-09-09T00:11:00;0.43;;;0.40;;
13347;SDS011;6743;49.934;9.138;2022-09-09T00:13:30;0.50;;;0.50;;
13347;SDS011;6743;49.934;9.138;2022-09-09T00:16:03;0.20;;;0.20;;
13347;SDS011;6743;49.934;9.138;2022-09-09T00:18:36;0.50;;;0.50;;
13347;SDS011;6743;49.934;9.138;2022-09-09T00:21:07;0.50;;;0.50;;
13347;SDS011;6743;49.934;9.138;2022-09-09T00:23:42;0.40;;;0.40;;
13347;SDS011;6743;49.934;9.138;2022-09-09T00:26:14;0.35;;;0.35;;
13347;SDS011;6743;49.934;9.138;2022-09-09T00:28:48;0.45;;;0.45;;
13347;SDS011;6743;49.934;9.138;2022-09-09T00:31:23;0.40;;;0.40;;
13347;SDS011;6743;49.934;9.138;2022-09-09T00:33:53;0.30;;;0.30;;
13347;SDS011;6743;49.934;9.138;2022-09-09T00:36:24;0.43;;;0.43;;
13347;SDS011;6743;49.934;9.138;2022-09-09T00:38:55;0.47;;;0.47;;
13347;SDS011;6743;49.934;9.138;2022-09-09T00:41:25;0.98;;;0.52;;
13347;SDS011;6743;49.934;9.138;2022-09-09T00:44:03;0.90;;;0.40;;
13347;SDS011;6743;49.934;9.138;2022-09-09T00:46:51;0.40;;;0.40;;
13347;SDS011;6743;49.934;9.138;2022-09-09T00:49:47;0.40;;;0.40;;
13347;SDS011;6743;49.934;9.138;2022-09-09T00:52:26;0.40;;;0.40;;
13347;SDS011;6743;49.934;9.138;2022-09-09T00:55:04;0.50;;;0.50;;
13347;SDS011;6743;49.934;9.138;2022-09-09T00:57:36;0.60;;;0.60;;
13347;SDS011;6743;49.934;9.138;2022-09-09T01:00:16;0.50;;;0.50;;
13347;SDS011;6743;49.934;9.138;2022-09-09T01:02:56;0.30;;;0.30;;
13347;SDS011;6743;49.934;9.138;2022-09-09T01:05:37;0.52;;;0.52;;
13347;SDS011;6743;49.934;9.138;2022-09-09T01:08:11;1.25;;;0.62;;
13347;SDS011;6743;49.934;9.138;2022-09-09T01:10:53;1.33;;;0.40;;
13347;SDS011;6743;49.934;9.138;2022-09-09T01:13:22;0.25;;;0.25;;
13347;SDS011;6743;49.934;9.138;2022-09-09T01:15:49;0.30;;;0.30;;
13347;SDS011;6743;49.934;9.138;2022-09-09T01:18:19;0.30;;;0.30;;
13347;SDS011;6743;49.934;9.138;2022-09-09T01:20:52;0.40;;;0.40;;
13347;SDS011;6743;49.934;9.138;2022-09-09T01:23:38;0.62;;;0.62;;
13347;SDS011;6743;49.934;9.138;2022-09-09T01:29:00;0.43;;;0.43;;
13347;SDS011;6743;49.934;9.138;2022-09-09T01:31:27;0.40;;;0.40;;
13347;SDS011;6743;49.934;9.138;2022-09-09T01:33:55;0.80;;;0.47;;
13347;SDS011;6743;49.934;9.138;2022-09-09T01:36:24;0.40;;;0.40;;
13347;SDS011;6743;49.934;9.138;2022-09-09T01:38:55;0.40;;;0.40;;
13347;SDS011;6743;49.934;9.138;2022-09-09T01:41:21;0.47;;;0.47;;
13347;SDS011;6743;49.934;9.138;2022-09-09T01:43:48;0.40;;;0.40;;
13347;SDS011;6743;49.934;9.138;2022-09-09T01:46:14;0.43;;;0.43;;
13347;SDS011;6743;49.934;9.138;2022-09-09T01:48:41;0.65;;;0.50;;
13347;SDS011;6743;49.934;9.138;2022-09-09T01:51:08;0.50;;;0.50;;
13347;SDS011;6743;49.934;9.138;2022-09-09T01:53:35;0.73;;;0.73;;
13347;SDS011;6743;49.934;9.138;2022-09-09T01:56:05;0.50;;;0.50;;
13347;SDS011;6743;49.934;9.138;2022-09-09T01:58:43;0.60;;;0.60;;
13347;SDS011;6743;49.934;9.138;2022-09-09T02:01:22;0.50;;;0.50;;
13347;SDS011;6743;49.934;9.138;2022-09-09T02:03:57;0.70;;;0.70;;
13347;SDS011;6743;49.934;9.138;2022-09-09T02:06:31;0.47;;;0.47;;
13347;SDS011;6743;49.934;9.138;2022-09-09T02:09:01;0.45;;;0.45;;
13347;SDS011;6743;49.934;9.138;2022-09-09T02:11:30;0.32;;;0.32;;
13347;SDS011;6743;49.934;9.138;2022-09-09T02:14:00;0.55;;;0.55;;
13347;SDS011;6743;49.934;9.138;2022-09-09T02:16:29;0.43;;;0.43;;
13347;SDS011;6743;49.934;9.138;2022-09-09T02:19:01;0.60;;;0.60;;
13347;SDS011;6743;49.934;9.138;2022-09-09T02:21:32;0.50;;;0.50;;
13347;SDS011;6743;49.934;9.138;2022-09-09T02:24:00;0.52;;;0.52;;
13347;SDS011;6743;49.934;9.138;2022-09-09T02:26:30;0.60;;;0.60;;
13347;SDS011;6743;49.934;9.138;2022-09-09T02:29:01;0.50;;;0.50;;
13347;SDS011;6743;49.934;9.138;2022-09-09T02:31:29;0.80;;;0.80;;
13347;SDS011;6743;49.934;9.138;2022-09-09T02:34:00;0.60;;;0.60;;
13347;SDS011;6743;49.934;9.138;2022-09-09T02:36:29;0.93;;;0.93;;
13347;SDS011;6743;49.934;9.138;2022-09-09T02:38:58;0.77;;;0.77;;
13347;SDS011;6743;49.934;9.138;2022-09-09T02:41:26;0.70;;;0.70;;
13347;SDS011;6743;49.934;9.138;2022-09-09T02:43:56;0.75;;;0.75;;
13347;SDS011;6743;49.934;9.138;2022-09-09T02:46:27;0.75;;;0.75;;
13347;SDS011;6743;49.934;9.138;2022-09-09T02:49:06;0.88;;;0.80;;
13347;SDS011;6743;49.934;9.138;2022-09-09T02:51:37;0.50;;;0.50;;
13347;SDS011;6743;49.934;9.138;2022-09-09T02:54:15;0.77;;;0.60;;
13347;SDS011;6743;49.934;9.138;2022-09-09T02:56:47;0.70;;;0.70;;
13347;SDS011;6743;49.934;9.138;2022-09-09T02:59:17;1.10;;;0.80;;
13347;SDS011;6743;49.934;9.138;2022-09-09T03:01:44;0.80;;;0.80;;
13347;SDS011;6743;49.934;9.138;2022-09-09T03:04:10;0.68;;;0.68;;
13347;SDS011;6743;49.934;9.138;2022-09-09T03:06:36;0.95;;;0.95;;
13347;SDS011;6743;49.934;9.138;2022-09-09T03:09:02;0.80;;;0.80;;
13347;SDS011;6743;49.934;9.138;2022-09-09T03:11:28;0.62;;;0.62;;
13347;SDS011;6743;49.934;9.138;2022-09-09T03:13:54;1.10;;;1.02;;
13347;SDS011;6743;49.934;9.138;2022-09-09T03:16:21;1.35;;;1.25;;
13347;SDS011;6743;49.934;9.138;2022-09-09T03:18:48;1.65;;;0.95;;
13347;SDS011;6743;49.934;9.138;2022-09-09T03:21:14;1.10;;;1.00;;
13347;SDS011;6743;49.934;9.138;2022-09-09T03:23:40;0.77;;;0.77;;
13347;SDS011;6743;49.934;9.138;2022-09-09T03:26:06;0.95;;;0.90;;
13347;SDS011;6743;49.934;9.138;2022-09-09T03:28:33;0.77;;;0.77;;
13347;SDS011;6743;49.934;9.138;2022-09-09T03:31:00;0.95;;;0.95;;
13347;SDS011;6743;49.934;9.138;2022-09-09T03:33:26;0.80;;;0.80;;
13347;SDS011;6743;49.934;9.138;2022-09-09T03:35:53;0.82;;;0.80;;
13347;SDS011;6743;49.934;9.138;2022-09-09T03:38:21;1.05;;;0.98;;
13347;SDS011;6743;49.934;9.138;2022-09-09T03:40:49;0.52;;;0.52;;
13347;SDS011;6743;49.934;9.138;2022-09-09T03:43:16;0.70;;;0.70;;
13347;SDS011;6743;49.934;9.138;2022-09-09T03:45:44;0.70;;;0.70;;
13347;SDS011;6743;49.934;9.138;2022-09-09T03:48:11;0.80;;;0.80;;
13347;SDS011;6743;49.934;9.138;2022-09-09T03:50:37;0.55;;;0.55;;
13347;SDS011;6743;49.934;9.138;2022-09-09T03:53:04;0.70;;;0.70;;
13347;SDS011;6743;49.934;9.138;2022-09-09T03:55:31;0.77;;;0.77;;
13347;SDS011;6743;49.934;9.138;2022-09-09T03:57:57;0.73;;;0.70;;
13347;SDS011;6743;49.934;9.138;2022-09-09T04:00:23;0.85;;;0.75;;
13347;SDS011;6743;49.934;9.138;2022-09-09T04:02:49;0.68;;;0.68;;
13347;SDS011;6743;49.934;9.138;2022-09-09T04:05:19;0.45;;;0.45;;
13347;SDS011;6743;49.934;9.138;2022-09-09T04:07:45;0.50;;;0.50;;
13347;SDS011;6743;49.934;9.138;2022-09-09T04:10:11;0.40;;;0.40;;
13347;SDS011;6743;49.934;9.138;2022-09-09T04:12:38;0.98;;;0.93;;
13347;SDS011;6743;49.934;9.138;2022-09-09T04:15:04;0.82;;;0.82;;
13347;SDS011;6743;49.934;9.138;2022-09-09T04:17:31;0.77;;;0.77;;
13347;SDS011;6743;49.934;9.138;2022-09-09T04:19:57;0.60;;;0.60;;
13347;SDS011;6743;49.934;9.138;2022-09-09T04:22:23;0.90;;;0.55;;
13347;SDS011;6743;49.934;9.138;2022-09-09T04:24:49;1.27;;;0.68;;
13347;SDS011;6743;49.934;9.138;2022-09-09T04:27:16;0.52;;;0.52;;
13347;SDS011;6743;49.934;9.138;2022-09-09T04:29:42;0.32;;;0.32;;
13347;SDS011;6743;49.934;9.138;2022-09-09T04:32:08;0.57;;;0.57;;
13347;SDS011;6743;49.934;9.138;2022-09-09T04:34:34;0.75;;;0.68;;
13347;SDS011;6743;49.934;9.138;2022-09-09T04:37:00;0.60;;;0.60;;
13347;SDS011;6743;49.934;9.138;2022-09-09T04:39:26;0.47;;;0.47;;
13347;SDS011;6743;49.934;9.138;2022-09-09T04:41:52;0.65;;;0.65;;
13347;SDS011;6743;49.934;9.138;2022-09-09T04:44:18;0.40;;;0.40;;
13347;SDS011;6743;49.934;9.138;2022-09-09T04:46:45;0.40;;;0.40;;
13347;SDS011;6743;49.934;9.138;2022-09-09T04:49:11;0.45;;;0.45;;
13347;SDS011;6743;49.934;9.138;2022-09-09T04:51:37;0.40;;;0.40;;
13347;SDS011;6743;49.934;9.138;2022-09-09T04:54:04;0.50;;;0.50;;
13347;SDS011;6743;49.934;9.138;2022-09-09T04:56:30;0.60;;;0.60;;
13347;SDS011;6743;49.934;9.138;2022-09-09T04:58:56;0.82;;;0.82;;
13347;SDS011;6743;49.934;9.138;2022-09-09T05:01:23;0.62;;;0.60;;
13347;SDS011;6743;49.934;9.138;2022-09-09T05:03:49;0.50;;;0.50;;
13347;SDS011;6743;49.934;9.138;2022-09-09T05:06:17;0.55;;;0.55;;
13347;SDS011;6743;49.934;9.138;2022-09-09T05:08:45;0.60;;;0.40;;
13347;SDS011;6743;49.934;9.138;2022-09-09T05:11:14;0.80;;;0.80;;
13347;SDS011;6743;49.934;9.138;2022-09-09T05:13:41;0.70;;;0.68;;
13347;SDS011;6743;49.934;9.138;2022-09-09T05:16:07;0.40;;;0.40;;
13347;SDS011;6743;49.934;9.138;2022-09-09T05:18:36;0.45;;;0.45;;
13347;SDS011;6743;49.934;9.138;2022-09-09T05:21:03;0.52;;;0.52;;
13347;SDS011;6743;49.934;9.138;2022-09-09T05:23:29;0.50;;;0.50;;
13347;SDS011;6743;49.934;9.138;2022-09-09T05:25:55;0.80;;;0.65;;
13347;SDS011;6743;49.934;9.138;2022-09-09T05:28:22;0.60;;;0.60;;
13347;SDS011;6743;49.934;9.138;2022-09-09T05:30:54;0.57;;;0.57;;
13347;SDS011;6743;49.934;9.138;2022-09-09T05:33:21;0.52;;;0.52;;
13347;SDS011;6743;49.934;9.138;2022-09-09T05:35:48;0.52;;;0.52;;
13347;SDS011;6743;49.934;9.138;2022-09-09T05:38:21;0.35;;;0.35;;
13347;SDS011;6743;49.934;9.138;2022-09-09T05:40:49;0.60;;;0.60;;
13347;SDS011;6743;49.934;9.138;2022-09-09T05:43:15;0.70;;;0.70;;
13347;SDS011;6743;49.934;9.138;2022-09-09T05:45:44;0.95;;;0.52;;
13347;SDS011;6743;49.934;9.138;2022-09-09T05:48:11;0.47;;;0.47;;
13347;SDS011;6743;49.934;9.138;2022-09-09T05:50:37;0.60;;;0.60;;
13347;SDS011;6743;49.934;9.138;2022-09-09T05:53:03;0.50;;;0.50;;
13347;SDS011;6743;49.934;9.138;2022-09-09T05:55:29;0.62;;;0.62;;
13347;SDS011;6743;49.934;9.138;2022-09-09T05:57:56;1.75;;;1.00;;
13347;SDS011;6743;49.934;9.138;2022-09-09T06:00:22;1.00;;;0.85;;
13347;SDS011;6743;49.934;9.138;2022-09-09T06:02:50;0.82;;;0.82;;
13347;SDS011;6743;49.934;9.138;2022-09-09T06:05:17;1.08;;;1.00;;
13347;SDS011;6743;49.934;9.138;2022-09-09T06:07:44;0.70;;;0.70;;
13347;SDS011;6743;49.934;9.138;2022-09-09T06:10:10;0.60;;;0.60;;
13347;SDS011;6743;49.934;9.138;2022-09-09T06:12:38;0.85;;;0.70;;
13347;SDS011;6743;49.934;9.138;2022-09-09T06:15:04;0.55;;;0.55;;
13347;SDS011;6743;49.934;9.138;2022-09-09T06:17:31;0.70;;;0.70;;
13347;SDS011;6743;49.934;9.138;2022-09-09T06:19:57;0.80;;;0.80;;
13347;SDS011;6743;49.934;9.138;2022-09-09T06:22:23;1.33;;;0.80;;
13347;SDS011;6743;49.934;9.138;2022-09-09T06:24:49;0.85;;;0.85;;
13347;SDS011;6743;49.934;9.138;2022-09-09T06:27:16;0.70;;;0.70;;
13347;SDS011;6743;49.934;9.138;2022-09-09T06:29:42;0.88;;;0.88;;
13347;SDS011;6743;49.934;9.138;2022-09-09T06:32:08;0.55;;;0.55;;
13347;SDS011;6743;49.934;9.138;2022-09-09T06:34:34;0.90;;;0.88;;
13347;SDS011;6743;49.934;9.138;2022-09-09T06:37:01;0.75;;;0.75;;
13347;SDS011;6743;49.934;9.138;2022-09-09T06:39:27;0.37;;;0.37;;
13347;SDS011;6743;49.934;9.138;2022-09-09T06:41:53;0.28;;;0.28;;
13347;SDS011;6743;49.934;9.138;2022-09-09T06:44:20;0.70;;;0.70;;
13347;SDS011;6743;49.934;9.138;2022-09-09T06:46:46;0.40;;;0.40;;
13347;SDS011;6743;49.934;9.138;2022-09-09T06:49:13;0.30;;;0.30;;
13347;SDS011;6743;49.934;9.138;2022-09-09T06:51:40;0.55;;;0.55;;
13347;SDS011;6743;49.934;9.138;2022-09-09T06:54:08;0.20;;;0.20;;
13347;SDS011;6743;49.934;9.138;2022-09-09T06:56:35;0.47;;;0.47;;
13347;SDS011;6743;49.934;9.138;2022-09-09T06:59:03;0.43;;;0.40;;
13347;SDS011;6743;49.934;9.138;2022-09-09T07:01:31;0.28;;;0.22;;
13347;SDS011;6743;49.934;9.138;2022-09-09T07:03:59;0.50;;;0.50;;
13347;SDS011;6743;49.934;9.138;2022-09-09T07:06:26;0.37;;;0.37;;
13347;SDS011;6743;49.934;9.138;2022-09-09T07:08:53;0.40;;;0.40;;
13347;SDS011;6743;49.934;9.138;2022-09-09T07:11:21;0.57;;;0.57;;
13347;SDS011;6743;49.934;9.138;2022-09-09T07:13:48;1.35;;;0.50;;
13347;SDS011;6743;49.934;9.138;2022-09-09T07:16:15;0.55;;;0.55;;
13347;SDS011;6743;49.934;9.138;2022-09-09T07:18:43;0.80;;;0.50;;
13347;SDS011;6743;49.934;9.138;2022-09-09T07:21:10;0.32;;;0.32;;
13347;SDS011;6743;49.934;9.138;2022-09-09T07:23:37;0.50;;;0.47;;
13347;SDS011;6743;49.934;9.138;2022-09-09T07:26:06;0.62;;;0.47;;
13347;SDS011;6743;49.934;9.138;2022-09-09T07:28:34;0.30;;;0.30;;
13347;SDS011;6743;49.934;9.138;2022-09-09T07:31:00;0.40;;;0.40;;
13347;SDS011;6743;49.934;9.138;2022-09-09T07:33:28;0.98;;;0.50;;
13347;SDS011;6743;49.934;9.138;2022-09-09T07:36:01;0.40;;;0.40;;
13347;SDS011;6743;49.934;9.138;2022-09-09T07:38:29;0.32;;;0.32;;
13347;SDS011;6743;49.934;9.138;2022-09-09T07:41:01;0.50;;;0.50;;
13347;SDS011;6743;49.934;9.138;2022-09-09T07:43:29;0.50;;;0.50;;
13347;SDS011;6743;49.934;9.138;2022-09-09T07:45:57;0.85;;;0.40;;
13347;SDS011;6743;49.934;9.138;2022-09-09T07:48:23;0.52;;;0.52;;
13347;SDS011;6743;49.934;9.138;2022-09-09T07:50:49;0.40;;;0.40;;
13347;SDS011;6743;49.934;9.138;2022-09-09T07:53:17;1.85;;;0.68;;
13347;SDS011;6743;49.934;9.138;2022-09-09T07:55:44;0.40;;;0.40;;
13347;SDS011;6743;49.934;9.138;2022-09-09T07:58:10;0.45;;;0.45;;
13347;SDS011;6743;49.934;9.138;2022-09-09T08:00:36;0.40;;;0.40;;
13347;SDS011;6743;49.934;9.138;2022-09-09T08:03:04;0.22;;;0.22;;
13347;SDS011;6743;49.934;9.138;2022-09-09T08:05:31;0.45;;;0.45;;
13347;SDS011;6743;49.934;9.138;2022-09-09T08:07:57;0.40;;;0.40;;
13347;SDS011;6743;49.934;9.138;2022-09-09T08:10:23;0.70;;;0.70;;
13347;SDS011;6743;49.934;9.138;2022-09-09T08:12:49;0.40;;;0.40;;
13347;SDS011;6743;49.934;9.138;2022-09-09T08:15:15;0.40;;;0.40;;
13347;SDS011;6743;49.934;9.138;2022-09-09T08:17:41;0.40;;;0.40;;
13347;SDS011;6743;49.934;9.138;2022-09-09T08:20:09;0.50;;;0.50;;
13347;SDS011;6743;49.934;9.138;2022-09-09T08:22:34;0.60;;;0.60;;
13347;SDS011;6743;49.934;9.138;2022-09-09T08:25:03;0.70;;;0.70;;
13347;SDS011;6743;49.934;9.138;2022-09-09T08:27:32;0.50;;;0.50;;
13347;SDS011;6743;49.934;9.138;2022-09-09T08:29:58;0.57;;;0.57;;
13347;SDS011;6743;49.934;9.138;2022-09-09T08:32:24;0.50;;;0.50;;
13347;SDS011;6743;49.934;9.138;2022-09-09T08:34:51;0.40;;;0.40;;
13347;SDS011;6743;49.934;9.138;2022-09-09T08:37:17;0.55;;;0.55;;
13347;SDS011;6743;49.934;9.138;2022-09-09T08:39:44;0.45;;;0.45;;
13347;SDS011;6743;49.934;9.138;2022-09-09T08:42:17;0.52;;;0.52;;
13347;SDS011;6743;49.934;9.138;2022-09-09T08:45:14;0.50;;;0.50;;
13347;SDS011;6743;49.934;9.138;2022-09-09T08:47:52;0.75;;;0.55;;
13347;SDS011;6743;49.934;9.138;2022-09-09T08:50:26;0.55;;;0.55;;
13347;SDS011;6743;49.934;9.138;2022-09-09T08:52:55;0.40;;;0.40;;
13347;SDS011;6743;49.934;9.138;2022-09-09T08:55:28;0.50;;;0.50;;
13347;SDS011;6743;49.934;9.138;2022-09-09T08:58:04;0.90;;;0.50;;
13347;SDS011;6743;49.934;9.138;2022-09-09T09:00:40;0.40;;;0.40;;
13347;SDS011;6743;49.934;9.138;2022-09-09T09:03:14;0.93;;;0.50;;
13347;SDS011;6743;49.934;9.138;2022-09-09T09:05:50;1.92;;;0.80;;
13347;SDS011;6743;49.934;9.138;2022-09-09T09:08:29;0.30;;;0.30;;
13347;SDS011;6743;49.934;9.138;2022-09-09T09:11:03;0.50;;;0.50;;
13347;SDS011;6743;49.934;9.138;2022-09-09T09:13:32;0.68;;;0.68;;
13347;SDS011;6743;49.934;9.138;2022-09-09T09:16:06;0.60;;;0.60;;
13347;SDS011;6743;49.934;9.138;2022-09-09T09:18:44;0.77;;;0.77;;
13347;SDS011;6743;49.934;9.138;2022-09-09T09:21:12;0.82;;;0.82;;
13347;SDS011;6743;49.934;9.138;2022-09-09T09:23:45;0.93;;;0.68;;
13347;SDS011;6743;49.934;9.138;2022-09-09T09:26:20;0.60;;;0.57;;
13347;SDS011;6743;49.934;9.138;2022-09-09T09:28:48;0.40;;;0.40;;
13347;SDS011;6743;49.934;9.138;2022-09-09T09:31:14;0.60;;;0.50;;
13347;SDS011;6743;49.934;9.138;2022-09-09T09:33:43;0.50;;;0.50;;
13347;SDS011;6743;49.934;9.138;2022-09-09T09:36:12;0.43;;;0.43;;
13347;SDS011;6743;49.934;9.138;2022-09-09T09:38:40;0.37;;;0.37;;
13347;SDS011;6743;49.934;9.138;2022-09-09T09:41:28;0.40;;;0.40;;
13347;SDS011;6743;49.934;9.138;2022-09-09T09:43:54;0.28;;;0.28;;
13347;SDS011;6743;49.934;9.138;2022-09-09T09:46:22;0.47;;;0.47;;
13347;SDS011;6743;49.934;9.138;2022-09-09T09:48:55;0.30;;;0.30;;
13347;SDS011;6743;49.934;9.138;2022-09-09T09:51:22;0.40;;;0.40;;
13347;SDS011;6743;49.934;9.138;2022-09-09T09:53:49;0.30;;;0.30;;
13347;SDS011;6743;49.934;9.138;2022-09-09T09:56:17;0.90;;;0.80;;
13347;SDS011;6743;49.934;9.138;2022-09-09T09:58:52;0.95;;;0.40;;
13347;SDS011;6743;49.934;9.138;2022-09-09T10:01:21;0.30;;;0.30;;
13347;SDS011;6743;49.934;9.138;2022-09-09T10:03:50;1.35;;;0.52;;
13347;SDS011;6743;49.934;9.138;2022-09-09T10:06:28;0.43;;;0.43;;
13347;SDS011;6743;49.934;9.138;2022-09-09T10:08:55;0.75;;;0.75;;
13347;SDS011;6743;49.934;9.138;2022-09-09T10:11:25;0.40;;;0.40;;
13347;SDS011;6743;49.934;9.138;2022-09-09T10:14:05;1.17;;;0.52;;
13347;SDS011;6743;49.934;9.138;2022-09-09T10:16:47;0.47;;;0.47;;
13347;SDS011;6743;49.934;9.138;2022-09-09T10:19:29;0.50;;;0.50;;
13347;SDS011;6743;49.934;9.138;2022-09-09T10:22:01;0.40;;;0.40;;
13347;SDS011;6743;49.934;9.138;2022-09-09T10:24:36;0.55;;;0.40;;
13347;SDS011;6743;49.934;9.138;2022-09-09T10:27:23;0.62;;;0.50;;
13347;SDS011;6743;49.934;9.138;2022-09-09T10:30:04;0.30;;;0.30;;
13347;SDS011;6743;49.934;9.138;2022-09-09T10:32:41;0.40;;;0.40;;
13347;SDS011;6743;49.934;9.138;2022-09-09T10:35:14;0.52;;;0.52;;
13347;SDS011;6743;49.934;9.138;2022-09-09T10:37:57;0.80;;;0.50;;
13347;SDS011;6743;49.934;9.138;2022-09-09T10:40:41;0.40;;;0.37;;
13347;SDS011;6743;49.934;9.138;2022-09-09T10:43:17;0.70;;;0.68;;
13347;SDS011;6743;49.934;9.138;2022-09-09T10:45:55;0.32;;;0.32;;
13347;SDS011;6743;49.934;9.138;2022-09-09T10:48:40;0.35;;;0.35;;
13347;SDS011;6743;49.934;9.138;2022-09-09T10:51:22;0.30;;;0.30;;
13347;SDS011;6743;49.934;9.138;2022-09-09T10:53:53;1.05;;;0.43;;
13347;SDS011;6743;49.934;9.138;2022-09-09T10:56:36;0.30;;;0.30;;
13347;SDS011;6743;49.934;9.138;2022-09-09T10:59:04;0.85;;;0.65;;
13347;SDS011;6743;49.934;9.138;2022-09-09T11:01:39;0.28;;;0.28;;
13347;SDS011;6743;49.934;9.138;2022-09-09T11:04:11;0.43;;;0.43;;
13347;SDS011;6743;49.934;9.138;2022-09-09T11:06:43;0.20;;;0.20;;
13347;SDS011;6743;49.934;9.138;2022-09-09T11:09:13;0.30;;;0.30;;
13347;SDS011;6743;49.934;9.138;2022-09-09T11:11:43;0.47;;;0.47;;
13347;SDS011;6743;49.934;9.138;2022-09-09T11:14:15;0.40;;;0.40;;
13347;SDS011;6743;49.934;9.138;2022-09-09T11:16:48;0.40;;;0.40;;
13347;SDS011;6743;49.934;9.138;2022-09-09T11:19:19;0.20;;;0.20;;
13347;SDS011;6743;49.934;9.138;2022-09-09T11:21:52;1.05;;;0.55;;
13347;SDS011;6743;49.934;9.138;2022-09-09T11:24:20;0.40;;;0.40;;
13347;SDS011;6743;49.934;9.138;2022-09-09T11:26:50;0.37;;;0.37;;
13347;SDS011;6743;49.934;9.138;2022-09-09T11:29:26;0.43;;;0.43;;
13347;SDS011;6743;49.934;9.138;2022-09-09T11:32:08;0.32;;;0.32;;
13347;SDS011;6743;49.934;9.138;2022-09-09T11:34:50;0.28;;;0.20;;
13347;SDS011;6743;49.934;9.138;2022-09-09T11:37:36;0.60;;;0.52;;
13347;SDS011;6743;49.934;9.138;2022-09-09T11:40:17;0.55;;;0.40;;
13347;SDS011;6743;49.934;9.138;2022-09-09T11:42:46;0.37;;;0.37;;
13347;SDS011;6743;49.934;9.138;2022-09-09T11:45:21;0.93;;;0.40;;
13347;SDS011;6743;49.934;9.138;2022-09-09T11:47:54;0.70;;;0.43;;
13347;SDS011;6743;49.934;9.138;2022-09-09T11:50:29;0.30;;;0.28;;
13347;SDS011;6743;49.934;9.138;2022-09-09T11:53:04;0.20;;;0.20;;
13347;SDS011;6743;49.934;9.138;2022-09-09T11:58:40;0.20;;;0.20;;
13347;SDS011;6743;49.934;9.138;2022-09-09T12:01:15;0.73;;;0.70;;
13347;SDS011;6743;49.934;9.138;2022-09-09T12:03:51;0.52;;;0.28;;
13347;SDS011;6743;49.934;9.138;2022-09-09T12:06:42;0.20;;;0.20;;
13347;SDS011;6743;49.934;9.138;2022-09-09T12:09:15;0.77;;;0.35;;
13347;SDS011;6743;49.934;9.138;2022-09-09T12:11:45;0.20;;;0.20;;
13347;SDS011;6743;49.934;9.138;2022-09-09T12:14:19;0.20;;;0.20;;
13347;SDS011;6743;49.934;9.138;2022-09-09T12:16:46;0.40;;;0.40;;
13347;SDS011;6743;49.934;9.138;2022-09-09T12:19:14;0.20;;;0.20;;
13347;SDS011;6743;49.934;9.138;2022-09-09T12:21:45;0.40;;;0.35;;
13347;SDS011;6743;49.934;9.138;2022-09-09T12:24:18;0.40;;;0.40;;
13347;SDS011;6743;49.934;9.138;2022-09-09T12:26:54;0.32;;;0.32;;
13347;SDS011;6743;49.934;9.138;2022-09-09T12:29:25;0.20;;;0.20;;
13347;SDS011;6743;49.934;9.138;2022-09-09T12:31:59;0.32;;;0.20;;
13347;SDS011;6743;49.934;9.138;2022-09-09T12:34:33;0.43;;;0.40;;
13347;SDS011;6743;49.934;9.138;2022-09-09T12:37:05;0.20;;;0.20;;
13347;SDS011;6743;49.934;9.138;2022-09-09T12:39:40;0.32;;;0.30;;
13347;SDS011;6743;49.934;9.138;2022-09-09T12:42:18;0.65;;;0.40;;
13347;SDS011;6743;49.934;9.138;2022-09-09T12:44:52;0.73;;;0.35;;
13347;SDS011;6743;49.934;9.138;2022-09-09T12:47:20;0.50;;;0.20;;
13347;SDS011;6743;49.934;9.138;2022-09-09T12:49:49;0.37;;;0.37;;
13347;SDS011;6743;49.934;9.138;2022-09-09T12:52:18;1.00;;;0.47;;
13347;SDS011;6743;49.934;9.138;2022-09-09T12:54:51;0.22;;;0.22;;
13347;SDS011;6743;49.934;9.138;2022-09-09T12:57:19;0.60;;;0.50;;
13347;SDS011;6743;49.934;9.138;2022-09-09T12:59:48;0.30;;;0.30;;
13347;SDS011;6743;49.934;9.138;2022-09-09T13:02:20;0.30;;;0.30;;
13347;SDS011;6743;49.934;9.138;2022-09-09T13:04:48;0.30;;;0.30;;
13347;SDS011;6743;49.934;9.138;2022-09-09T13:07:15;0.30;;;0.30;;
13347;SDS011;6743;49.934;9.138;2022-09-09T13:09:42;0.20;;;0.20;;
13347;SDS011;6743;49.934;9.138;2022-09-09T13:12:11;0.43;;;0.40;;
13347;SDS011;6743;49.934;9.138;2022-09-09T13:14:42;0.30;;;0.30;;
13347;SDS011;6743;49.934;9.138;2022-09-09T13:17:15;0.57;;;0.40;;
13347;SDS011;6743;49.934;9.138;2022-09-09T13:19:45;0.90;;;0.30;;
13347;SDS011;6743;49.934;9.138;2022-09-09T13:22:12;0.20;;;0.20;;
13347;SDS011;6743;49.934;9.138;2022-09-09T13:24:39;0.37;;;0.37;;
13347;SDS011;6743;49.934;9.138;2022-09-09T13:27:20;0.20;;;0.20;;
13347;SDS011;6743;49.934;9.138;2022-09-09T13:29:53;0.17;;;0.10;;
13347;SDS011;6743;49.934;9.138;2022-09-09T13:32:22;0.52;;;0.30;;
13347;SDS011;6743;49.934;9.138;2022-09-09T13:34:52;0.30;;;0.30;;
13347;SDS011;6743;49.934;9.138;2022-09-09T13:37:22;0.55;;;0.22;;
13347;SDS011;6743;49.934;9.138;2022-09-09T13:39:52;0.20;;;0.20;;
13347;SDS011;6743;49.934;9.138;2022-09-09T13:42:23;0.70;;;0.62;;
13347;SDS011;6743;49.934;9.138;2022-09-09T13:44:51;0.20;;;0.20;;
13347;SDS011;6743;49.934;9.138;2022-09-09T13:47:18;0.30;;;0.30;;
13347;SDS011;6743;49.934;9.138;2022-09-09T13:49:45;0.20;;;0.20;;
13347;SDS011;6743;49.934;9.138;2022-09-09T13:52:12;0.30;;;0.30;;
13347;SDS011;6743;49.934;9.138;2022-09-09T13:54:40;0.32;;;0.10;;
13347;SDS011;6743;49.934;9.138;2022-09-09T13:57:13;0.20;;;0.20;;
13347;SDS011;6743;49.934;9.138;2022-09-09T13:59:41;0.20;;;0.20;;
13347;SDS011;6743;49.934;9.138;2022-09-09T14:02:07;0.77;;;0.35;;
13347;SDS011;6743;49.934;9.138;2022-09-09T14:04:33;0.40;;;0.40;;
13347;SDS011;6743;49.934;9.138;2022-09-09T14:07:00;0.10;;;0.10;;
13347;SDS011;6743;49.934;9.138;2022-09-09T14:09:27;0.45;;;0.20;;
13347;SDS011;6743;49.934;9.138;2022-09-09T14:11:53;0.22;;;0.13;;
13347;SDS011;6743;49.934;9.138;2022-09-09T14:14:20;0.17;;;0.17;;
13347;SDS011;6743;49.934;9.138;2022-09-09T14:16:46;0.65;;;0.30;;
13347;SDS011;6743;49.934;9.138;2022-09-09T14:19:12;0.10;;;0.10;;
13347;SDS011;6743;49.934;9.138;2022-09-09T14:21:38;0.40;;;0.40;;
13347;SDS011;6743;49.934;9.138;2022-09-09T14:24:04;0.40;;;0.40;;
13347;SDS011;6743;49.934;9.138;2022-09-09T14:26:30;0.62;;;0.30;;
13347;SDS011;6743;49.934;9.138;2022-09-09T14:28:57;0.30;;;0.30;;
13347;SDS011;6743;49.934;9.138;2022-09-09T14:31:23;0.30;;;0.30;;
13347;SDS011;6743;49.934;9.138;2022-09-09T14:33:50;0.20;;;0.20;;
13347;SDS011;6743;49.934;9.138;2022-09-09T14:36:17;0.30;;;0.30;;
13347;SDS011;6743;49.934;9.138;2022-09-09T14:38:43;0.60;;;0.43;;
13347;SDS011;6743;49.934;9.138;2022-09-09T14:41:09;0.10;;;0.10;;
13347;SDS011;6743;49.934;9.138;2022-09-09T14:43:37;0.43;;;0.43;;
13347;SDS011;6743;49.934;9.138;2022-09-09T14:46:06;0.20;;;0.20;;
13347;SDS011;6743;49.934;9.138;2022-09-09T14:48:33;0.32;;;0.30;;
13347;SDS011;6743;49.934;9.138;2022-09-09T14:51:05;0.20;;;0.17;;
13347;SDS011;6743;49.934;9.138;2022-09-09T14:53:32;0.13;;;0.13;;
13347;SDS011;6743;49.934;9.138;2022-09-09T14:56:02;0.20;;;0.20;;
13347;SDS011;6743;49.934;9.138;2022-09-09T14:58:30;0.50;;;0.30;;
13347;SDS011;6743;49.934;9.138;2022-09-09T15:01:01;0.30;;;0.30;;
13347;SDS011;6743;49.934;9.138;2022-09-09T15:03:28;0.22;;;0.22;;
13347;SDS011;6743;49.934;9.138;2022-09-09T15:05:54;0.20;;;0.20;;
13347;SDS011;6743;49.934;9.138;2022-09-09T15:08:20;0.20;;;0.20;;
13347;SDS011;6743;49.934;9.138;2022-09-09T15:10:46;0.20;;;0.20;;
13347;SDS011;6743;49.934;9.138;2022-09-09T15:13:14;0.20;;;0.20;;
13347;SDS011;6743;49.934;9.138;2022-09-09T15:15:42;1.48;;;0.30;;
13347;SDS011;6743;49.934;9.138;2022-09-09T15:18:09;1.23;;;0.43;;
13347;SDS011;6743;49.934;9.138;2022-09-09T15:20:35;0.47;;;0.30;;
13347;SDS011;6743;49.934;9.138;2022-09-09T15:23:02;0.20;;;0.20;;